Milton, FL

6:21 PM CST on January 25, 2015 (GMT -0600)
JnK Ranch | Change Station
CLOSE
Current Station
Personal Weather Station
Location: Milton, FL
Elevation: 210 ft
Nearby Weather Stations
Active Advisory: Coastal Hazard Statement

Elev 210 ft 30.76 °N, 87.05 °W | Updated 1 minute ago

Partly Cloudy
Partly Cloudy
56.6 °F
Feels Like 56.6 °F
N
4.0
Wind Variable Wind from SW
Gusts 4.0 mph

Today
High -- | Low -- °F
--% Chance of Precip.
Yesterday
High -- | Low -- °F
Precip. -- in
6:43 AM 5:17 PM
Waxing Crescent, 37% visible
Pressure 29.82 in
Visibility 10.0 miles
Clouds Few 2500 ft
Few 25000 ft
Dew Point 50 °F
Humidity 77%
Rainfall 0.00 in
Snow Depth Not available.
UV 0 out of 12
Pollen 6.10 out of 12
Air Quality Not available.
Flu Activity Not available.
METAR KNDZ 252356Z 22006KT 10SM FEW025 FEW250 15/09 A2985 RMK AO2 SLP097 T01500094 10189 20150 58007

More Conditions Fewer Conditions

Pressure 29.82 in
Visibility 10.0 miles
Clouds Few 2500 ft
Few 25000 ft
Dew Point 50 °F
Humidity 77%
Rainfall 0.00 in
Snow Depth Not available.
UV 0 out of 12
Pollen 6.10 out of 12
Air Quality Not available.
Flu Activity Not available.
METAR KNDZ 252356Z 22006KT 10SM FEW025 FEW250 15/09 A2985 RMK AO2 SLP097 T01500094 10189 20150 58007

More Conditions Fewer Conditions

10-Day Weather Forecast

Almanac

Astronomy

Jan. 25, 2015 Rise Set
Actual Time
Civil Twilight
Nautical Twilight
Astronomical Twilight
Moon
Length of Visible Light
Length of Day
Tomorrow will be .
, % of the Moon is Illuminated

Today's Extremes

State Highs State Lows

Community

WunderPhotos

Upload Photos

1,790,013 photos uploaded!

WunderBlogs® & News

Nearby

Air Quality

  Air Quality AQ Index Pollutant
Not available.

Snow Depth

Station Depth Elevation

Earthquake Activity

City Distance Mag. Time & Date
Minimum magnitude displayed is 2.5.

Coastal Water Temperatures

Place Temperature

Nearby Weather Stations